Time;durP1;ratioP1;P1;durP2;ratioP2;P2;SDS_P1;SDS_P2;PMS_P1;PMS_P2;Temp;Humidity;BMP_temperature;BMP_pressure;BME280_temperature;BME280_humidity;BME280_pressure;Samples;Min_cycle;Max_cycle;Signal;HPM_P1;HPM_P2
2022/08/20 07:35:53;;;;;;;;;5.50;3.00;;;;;20.46;59.28;101823.38;2692271;23;45992;-79
2022/08/20 07:37:03;;;;;;;;;6.00;3.50;;;;;20.49;58.87;101827.69;2391921;28;45516;-78
2022/08/20 07:38:23;;;;;;;;;3.00;3.00;;;;;20.51;58.67;101829.31;2392260;28;45323;-78
2022/08/20 07:39:34;;;;;;;;;5.00;2.00;;;;;20.51;59.23;101829.31;2384656;28;44752;-78
2022/08/20 07:40:47;;;;;;;;;4.00;3.75;;;;;20.53;59.35;101827.41;2391332;28;46272;-78
2022/08/20 07:42:06;;;;;;;;;3.00;3.00;;;;;20.57;58.87;101828.06;2393088;28;45253;-77
2022/08/20 07:43:16;;;;;;;;;5.75;3.00;;;;;20.58;58.97;101828.00;2386752;28;45496;-78
2022/08/20 07:44:26;;;;;;;;;5.75;1.75;;;;;20.61;59.03;101834.97;2390657;28;45733;-78
2022/08/20 07:45:37;;;;;;;;;5.00;3.00;;;;;20.63;59.22;101824.19;2390105;28;47088;-78
2022/08/20 07:46:47;;;;;;;;;4.00;2.00;;;;;20.66;59.32;101827.56;2392464;28;44657;-78
2022/08/20 07:48:10;;;;;;;;;4.25;2.00;;;;;20.72;58.81;101833.50;2393171;28;45306;-78
2022/08/20 07:49:20;;;;;;;;;6.50;3.75;;;;;20.75;59.17;101830.63;2393310;28;45239;-78
2022/08/20 07:50:31;;;;;;;;;3.75;2.75;;;;;20.79;58.96;101832.19;2392950;28;46174;-79
2022/08/20 07:51:41;;;;;;;;;8.25;3.00;;;;;20.82;59.04;101837.31;2392921;28;45417;-78
2022/08/20 07:52:52;;;;;;;;;1.50;1.00;;;;;20.83;58.70;101836.38;2389988;28;45701;-78
2022/08/20 07:54:04;;;;;;;;;4.00;2.00;;;;;20.88;58.19;101847.66;2389912;28;45477;-78
2022/08/20 07:55:15;;;;;;;;;1.50;1.50;;;;;20.86;58.38;101841.53;2388564;28;46612;-78
2022/08/20 07:56:25;;;;;;;;;5.25;2.00;;;;;20.87;58.37;101845.06;2386560;28;45259;-78
2022/08/20 07:57:37;;;;;;;;;4.00;3.00;;;;;20.84;58.61;101845.25;2393126;28;45484;-78
2022/08/20 07:58:51;;;;;;;;;2.75;2.75;;;;;20.83;58.23;101841.72;2393141;28;44746;-79
2022/08/20 08:00:03;;;;;;;;;3.25;2.25;;;;;20.88;58.47;101853.00;2392853;28;45289;-78
2022/08/20 08:01:18;;;;;;;;;3.00;1.00;;;;;20.87;58.91;101845.91;2392523;28;44720;-78
2022/08/20 08:02:29;;;;;;;;;4.25;3.00;;;;;20.89;58.35;101843.16;2392630;28;46287;-78
2022/08/20 08:03:39;;;;;;;;;10.50;3.00;;;;;20.91;59.02;101841.25;2392566;28;44763;-78
2022/08/20 08:04:49;;;;;;;;;2.25;2.25;;;;;20.94;58.63;101846.41;2393027;28;45429;-78
2022/08/20 08:06:00;;;;;;;;;2.50;2.00;;;;;20.95;58.35;101837.44;2392847;28;45287;-78
2022/08/20 08:07:10;;;;;;;;;3.50;2.50;;;;;20.98;58.57;101841.75;2385265;28;45262;-78
2022/08/20 08:08:24;;;;;;;;;3.00;3.00;;;;;21.01;58.71;101841.59;2384707;28;45270;-78
2022/08/20 08:09:36;;;;;;;;;5.50;2.00;;;;;21.05;58.47;101840.47;2384506;28;45552;-79
2022/08/20 08:10:49;;;;;;;;;3.25;3.00;;;;;21.08;58.55;101837.59;2393673;28;45349;-79
2022/08/20 08:12:01;;;;;;;;;2.00;1.00;;;;;21.08;58.18;101834.94;2386061;28;46359;-78
2022/08/20 08:13:13;;;;;;;;;3.75;2.00;;;;;21.11;58.09;101839.25;2392639;28;45440;-78
2022/08/20 08:14:28;;;;;;;;;3.00;2.00;;;;;21.11;58.30;101834.72;2391835;28;47970;-78
2022/08/20 08:15:43;;;;;;;;;5.00;3.00;;;;;21.14;58.02;101841.69;2392113;28;44854;-78
2022/08/20 08:16:57;;;;;;;;;2.25;1.50;;;;;21.17;57.85;101837.97;2392612;28;45688;-78
2022/08/20 08:18:14;;;;;;;;;4.00;2.00;;;;;21.13;57.79;101838.19;2393186;28;45426;-78
2022/08/20 08:19:37;;;;;;;;;3.75;3.75;;;;;21.12;57.71;101836.47;2392936;28;45428;-78
2022/08/20 08:20:51;;;;;;;;;8.25;2.25;;;;;21.12;58.07;101839.13;2392784;28;45287;-78
2022/08/20 08:22:03;;;;;;;;;3.25;2.00;;;;;21.12;58.19;101841.81;2392975;28;45394;-78
2022/08/20 08:23:13;;;;;;;;;3.25;2.00;;;;;21.14;58.09;101842.56;2392310;28;45412;-78
2022/08/20 08:24:23;;;;;;;;;4.25;2.25;;;;;21.18;57.96;101847.72;2392885;28;45448;-78
2022/08/20 08:25:34;;;;;;;;;5.25;2.25;;;;;21.20;58.15;101845.81;2391518;28;45529;-78
2022/08/20 08:26:44;;;;;;;;;3.00;3.00;;;;;21.24;57.61;101850.00;2392845;28;45453;-79
2022/08/20 08:27:55;;;;;;;;;3.00;2.75;;;;;21.25;57.55;101846.41;2384327;28;44787;-78
2022/08/20 08:29:06;;;;;;;;;2.75;2.75;;;;;21.25;57.83;101839.25;2387759;28;45326;-78
2022/08/20 08:30:16;;;;;;;;;2.25;1.25;;;;;21.28;57.37;101850.69;2392941;28;45282;-78
2022/08/20 08:31:27;;;;;;;;;2.75;2.75;;;;;21.28;57.81;101840.88;2392686;28;46477;-78
2022/08/20 08:33:26;;;;;;;;;3.50;3.00;;;;;21.28;56.92;101848.03;2392776;28;45373;-78
2022/08/20 08:34:12;;;;;;;;;3.00;2.00;;;;;21.24;57.24;101858.03;2383886;28;45383;-78
2022/08/20 08:35:22;;;;;;;;;3.00;3.00;;;;;21.22;57.11;101854.59;2384833;28;45436;-78
2022/08/20 08:36:33;;;;;;;;;4.00;2.00;;;;;21.23;57.48;101856.34;2392379;28;45388;-78
2022/08/20 08:37:43;;;;;;;;;4.00;1.75;;;;;21.23;57.40;101861.69;2392814;28;45411;-78
2022/08/20 08:38:55;;;;;;;;;2.75;2.25;;;;;21.26;57.20;101856.13;2392825;28;45331;-78
2022/08/20 08:40:06;;;;;;;;;3.00;3.00;;;;;21.27;57.24;101852.50;2393090;28;44723;-79
2022/08/20 08:41:23;;;;;;;;;1.75;1.75;;;;;21.32;56.80;101852.22;2392501;28;45464;-77
2022/08/20 08:42:44;;;;;;;;;5.75;2.50;;;;;21.33;56.88;101851.28;2390089;28;45342;-79
2022/08/20 08:44:11;;;;;;;;;5.00;2.00;;;;;21.36;56.95;101856.41;2388591;28;47148;-79
2022/08/20 08:45:21;;;;;;;;;2.00;2.00;;;;;21.38;56.80;101848.31;2385037;28;45247;-79
2022/08/20 08:46:39;;;;;;;;;3.50;2.00;;;;;21.40;56.35;101843.72;2391205;28;45390;-79
2022/08/20 08:47:49;;;;;;;;;3.00;1.00;;;;;21.42;56.53;101839.16;2392774;28;44645;-79
2022/08/20 08:49:03;;;;;;;;;4.00;2.00;;;;;21.43;56.97;101843.56;2392543;28;46412;-79
2022/08/20 08:50:30;;;;;;;;;5.50;4.00;;;;;21.47;56.40;101847.75;2385265;28;45436;-79
2022/08/20 08:51:50;;;;;;;;;2.00;2.00;;;;;21.48;57.04;101841.47;2388212;28;46354;-79
2022/08/20 08:53:04;;;;;;;;;4.00;2.75;;;;;21.51;56.55;101845.75;2393704;28;45223;-81
2022/08/20 08:54:18;;;;;;;;;3.25;1.00;;;;;21.52;56.87;101845.66;2393443;28;45324;-78
2022/08/20 08:55:30;;;;;;;;;4.00;2.00;;;;;21.54;56.28;101841.06;2393872;28;45243;-77
2022/08/20 08:56:42;;;;;;;;;1.75;1.75;;;;;21.57;55.47;101848.91;2393575;28;45417;-78
2022/08/20 08:57:55;;;;;;;;;2.25;2.00;;;;;21.57;56.47;101843.56;2393878;28;45307;-79
2022/08/20 08:59:07;;;;;;;;;2.50;2.25;;;;;21.61;56.21;101844.19;2393529;28;45372;-78
2022/08/20 09:00:20;;;;;;;;;5.25;2.50;;;;;21.65;55.60;101844.88;2381985;28;45284;-79
2022/08/20 09:01:33;;;;;;;;;3.00;2.25;;;;;21.68;55.71;101850.06;2386156;28;45262;-78
2022/08/20 09:03:07;;;;;;;;;6.00;1.25;;;;;21.68;55.12;101844.69;2392953;28;45435;-78
2022/08/20 09:04:20;;;;;;;;;5.00;1.00;;;;;21.71;55.37;101847.16;2393034;28;45641;-78
2022/08/20 09:05:42;;;;;;;;;3.25;2.50;;;;;21.74;55.06;101849.66;2393402;28;45177;-78
2022/08/20 09:06:53;;;;;;;;;3.00;2.00;;;;;21.76;55.31;101852.22;2392234;28;46677;-78
2022/08/20 09:08:07;;;;;;;;;2.75;2.50;;;;;21.78;55.38;101850.31;2384393;28;45374;-78
2022/08/20 09:09:26;;;;;;;;;4.25;3.00;;;;;21.78;55.22;101853.84;2384254;28;45605;-78
2022/08/20 09:10:37;;;;;;;;;4.00;2.00;;;;;21.80;54.55;101846.56;2391453;28;44719;-78
2022/08/20 09:11:52;;;;;;;;;4.00;2.75;;;;;21.83;54.96;101842.84;2393388;28;45294;-78
2022/08/20 09:13:02;;;;;;;;;4.00;3.00;;;;;21.85;55.11;101843.63;2393700;28;45463;-78
2022/08/20 09:14:13;;;;;;;;;3.00;2.00;;;;;21.88;54.84;101842.56;2391409;28;45336;-79
2022/08/20 09:15:23;;;;;;;;;6.50;2.00;;;;;21.90;53.77;101843.34;2393434;28;44816;-78
2022/08/20 09:16:33;;;;;;;;;1.50;1.00;;;;;21.92;54.30;101838.75;2383286;28;47432;-79
2022/08/20 09:17:44;;;;;;;;;2.25;2.00;;;;;21.97;54.58;101844.69;2383338;28;45353;-79
2022/08/20 09:18:54;;;;;;;;;1.50;1.25;;;;;21.99;54.31;101844.56;2391498;28;46170;-79
2022/08/20 09:20:05;;;;;;;;;4.00;2.50;;;;;22.02;53.72;101841.69;2386324;28;45346;-79
2022/08/20 09:21:16;;;;;;;;;4.50;2.25;;;;;22.04;53.68;101845.13;2390559;28;45452;-79
2022/08/20 09:22:27;;;;;;;;;6.25;2.00;;;;;22.05;54.12;101840.66;2392451;28;45432;-79
2022/08/20 09:23:37;;;;;;;;;3.25;2.25;;;;;22.07;53.87;101838.72;2388496;28;46522;-79
2022/08/20 09:24:48;;;;;;;;;2.00;2.00;;;;;22.12;54.54;101844.66;2384203;28;44573;-79
2022/08/20 09:25:59;;;;;;;;;2.00;2.00;;;;;22.13;54.50;101843.66;2391035;28;46820;-79
2022/08/20 09:27:10;;;;;;;;;2.75;2.00;;;;;22.16;53.46;101838.13;2393209;28;45251;-79
2022/08/20 09:28:20;;;;;;;;;2.00;1.50;;;;;22.18;54.23;101829.97;2393513;28;45422;-79
2022/08/20 09:29:31;;;;;;;;;2.50;2.50;;;;;22.21;53.72;101844.03;2384514;28;44567;-79
2022/08/20 09:30:42;;;;;;;;;3.75;2.00;;;;;22.24;53.70;101829.59;2384023;28;46278;-79
2022/08/20 09:32:13;;;;;;;;;3.00;2.00;;;;;22.26;52.71;101841.91;2384224;28;45399;-79
2022/08/20 09:33:23;;;;;;;;;3.75;2.00;;;;;22.28;52.78;101838.25;2384118;28;45601;-79
2022/08/20 09:34:39;;;;;;;;;3.50;1.75;;;;;22.28;53.33;101833.78;2374898;28;44820;-79
2022/08/20 09:35:49;;;;;;;;;2.25;2.00;;;;;22.31;53.43;101835.38;2386160;28;46467;-79
2022/08/20 09:37:00;;;;;;;;;3.50;2.25;;;;;22.34;53.17;101838.75;2392112;28;44866;-79
2022/08/20 09:38:10;;;;;;;;;2.00;2.00;;;;;22.35;53.27;101837.75;2393198;28;46379;-79
2022/08/20 09:39:21;;;;;;;;;2.00;2.00;;;;;22.38;53.41;101836.69;2393532;28;45159;-79
2022/08/20 09:40:31;;;;;;;;;1.00;1.00;;;;;22.41;52.91;101835.63;2393258;28;45370;-79
2022/08/20 09:41:42;;;;;;;;;3.25;2.00;;;;;22.44;53.03;101830.94;2393699;28;44561;-79
2022/08/20 09:42:52;;;;;;;;;3.50;2.00;;;;;22.47;53.00;101845.97;2392402;28;45645;-80
2022/08/20 09:44:02;;;;;;;;;7.50;4.00;;;;;22.50;52.86;101840.38;2392602;28;45377;-79
2022/08/20 09:45:14;;;;;;;;;5.50;2.50;;;;;22.51;51.87;101835.88;2393216;28;45338;-79
2022/08/20 09:46:25;;;;;;;;;4.75;2.00;;;;;22.53;52.49;101836.63;2392907;28;45464;-79
2022/08/20 09:47:36;;;;;;;;;3.25;3.00;;;;;22.55;52.11;101837.38;2393046;28;46182;-79
2022/08/20 09:48:46;;;;;;;;;2.00;2.00;;;;;22.56;51.89;101839.13;2388861;28;45365;-79
2022/08/20 09:49:57;;;;;;;;;3.50;2.00;;;;;22.60;52.14;101840.63;2383958;28;46200;-79
2022/08/20 09:51:07;;;;;;;;;3.00;2.00;;;;;22.61;52.55;101842.34;2383858;28;45258;-79
2022/08/20 09:52:41;;;;;;;;;3.00;1.00;;;;;22.65;53.08;101834.94;2386062;28;45361;-79
2022/08/20 09:53:53;;;;;;;;;1.75;1.75;;;;;22.66;51.96;101836.69;2393422;28;45216;-80
2022/08/20 09:55:15;;;;;;;;;4.00;2.00;;;;;22.69;51.64;101833.84;2392965;28;46431;-80
2022/08/20 09:56:26;;;;;;;;;2.25;1.00;;;;;22.70;51.65;101833.72;2392863;28;45325;-80
2022/08/20 09:57:36;;;;;;;;;3.00;1.50;;;;;22.75;52.07;101830.72;2390034;28;46102;-80
2022/08/20 09:58:53;;;;;;;;;3.00;1.50;;;;;22.77;51.59;101836.84;2393285;28;44764;-79
2022/08/20 10:00:12;;;;;;;;;5.00;2.75;;;;;22.80;51.51;101825.03;2392658;28;46464;-79
2022/08/20 10:01:22;;;;;;;;;1.00;1.00;;;;;22.85;51.24;101833.63;2391974;28;45227;-80
2022/08/20 10:02:33;;;;;;;;;2.00;2.00;;;;;22.86;50.76;101827.31;2385026;28;46243;-80
2022/08/20 10:03:46;;;;;;;;;2.00;0.00;;;;;22.87;50.08;101820.97;2384173;28;45423;-80
2022/08/20 10:04:57;;;;;;;;;4.00;3.25;;;;;22.87;51.14;101826.34;2383984;28;45529;-80
2022/08/20 10:06:07;;;;;;;;;3.75;1.75;;;;;22.89;49.94;101828.94;2383659;28;45273;-79
2022/08/20 10:07:17;;;;;;;;;3.00;1.00;;;;;22.90;49.51;101833.31;2388685;28;45420;-79
2022/08/20 10:08:28;;;;;;;;;2.00;2.00;;;;;22.90;49.73;101826.13;2391667;28;45158;-79
2022/08/20 10:09:38;;;;;;;;;1.75;1.50;;;;;22.91;49.92;101833.22;2389973;28;46354;-79
2022/08/20 10:10:48;;;;;;;;;1.75;1.75;;;;;22.93;50.27;101822.38;2393375;28;44743;-81
2022/08/20 10:11:59;;;;;;;;;2.00;2.00;;;;;22.90;48.59;101823.47;2393313;28;46350;-82
2022/08/20 10:13:09;;;;;;;;;2.00;2.00;;;;;22.90;48.96;101819.91;2392204;28;45296;-82
2022/08/20 10:14:19;;;;;;;;;1.50;1.00;;;;;22.89;49.76;101824.41;2390031;28;46386;-81
2022/08/20 10:15:30;;;;;;;;;1.50;1.00;;;;;22.90;49.22;101819.91;2383245;28;44614;-81
2022/08/20 10:16:41;;;;;;;;;3.25;1.25;;;;;22.92;49.25;101818.84;2387235;28;45437;-81
2022/08/20 10:17:51;;;;;;;;;2.00;2.00;;;;;22.95;48.91;101816.91;2393965;28;44719;-81
2022/08/20 10:19:03;;;;;;;;;2.75;2.00;;;;;22.97;49.28;101820.34;2394841;28;46575;-81
2022/08/20 10:20:14;;;;;;;;;4.00;1.00;;;;;22.99;49.45;101826.47;2385916;28;44768;-83
2022/08/20 10:21:24;;;;;;;;;6.00;2.00;;;;;23.00;48.29;101820.13;2384932;28;45302;-83
2022/08/20 10:22:35;;;;;;;;;2.00;1.25;;;;;23.01;48.33;101808.47;2384525;28;45449;-82
2022/08/20 10:23:46;;;;;;;;;6.50;2.25;;;;;23.02;49.22;101816.38;2386393;28;45413;-82
2022/08/20 10:24:56;;;;;;;;;4.50;3.00;;;;;23.04;48.98;101818.94;2394179;28;45251;-82
2022/08/20 10:26:08;;;;;;;;;6.50;5.00;;;;;23.07;49.01;101816.06;2392135;28;46008;-81
2022/08/20 10:27:18;;;;;;;;;3.50;3.25;;;;;23.09;48.92;101808.75;2388393;28;45164;-82
2022/08/20 10:28:29;;;;;;;;;1.00;1.00;;;;;23.12;49.54;101813.91;2392420;28;46211;-82
2022/08/20 10:29:39;;;;;;;;;2.75;2.75;;;;;23.15;48.83;101813.72;2394861;28;44779;-82
2022/08/20 10:30:49;;;;;;;;;4.00;2.50;;;;;23.19;48.36;101816.19;2390146;28;45328;-82
2022/08/20 10:32:13;;;;;;;;;3.00;3.00;;;;;23.21;48.45;101806.22;2394901;28;45254;-82
2022/08/20 10:33:23;;;;;;;;;2.75;2.00;;;;;23.22;48.99;101805.22;2394710;28;45373;-82
2022/08/20 10:34:34;;;;;;;;;4.50;2.75;;;;;23.22;48.22;101803.41;2394873;28;45251;-82
2022/08/20 10:35:44;;;;;;;;;2.25;1.75;;;;;23.24;47.95;101800.59;2394379;28;46581;-81
2022/08/20 10:36:54;;;;;;;;;4.00;1.25;;;;;23.22;48.04;101797.19;2394521;28;45258;-82
2022/08/20 10:38:05;;;;;;;;;5.00;1.00;;;;;23.23;48.50;101801.59;2393422;28;45714;-82
2022/08/20 10:39:15;;;;;;;;;1.75;1.75;;;;;23.25;48.52;101802.34;2394651;28;45506;-82
2022/08/20 10:40:25;;;;;;;;;5.00;2.00;;;;;23.29;48.94;101811.88;2394135;28;46134;-82
2022/08/20 10:41:36;;;;;;;;;2.50;1.00;;;;;23.30;48.25;101805.56;2375588;28;44778;-82
2022/08/20 10:42:46;;;;;;;;;3.25;3.25;;;;;23.32;48.18;101810.78;2378080;28;45465;-82
2022/08/20 10:43:57;;;;;;;;;3.75;3.00;;;;;23.34;47.71;101807.03;2385584;28;45232;-82
2022/08/20 10:45:11;;;;;;;;;1.00;1.00;;;;;23.37;47.22;101808.66;2394685;28;46263;-81
2022/08/20 10:46:21;;;;;;;;;2.50;1.50;;;;;23.38;46.68;101800.47;2385869;28;45256;-81
2022/08/20 10:47:32;;;;;;;;;1.25;1.25;;;;;23.38;46.98;101813.88;2387707;28;46213;-81
2022/08/20 10:48:42;;;;;;;;;3.00;1.25;;;;;23.40;47.12;101812.94;2394698;28;45433;-81
2022/08/20 10:49:55;;;;;;;;;3.00;1.75;;;;;23.41;46.58;101812.81;2385669;28;46510;-81
2022/08/20 10:51:06;;;;;;;;;3.25;2.00;;;;;23.40;46.12;101805.75;2390434;28;45440;-81
2022/08/20 10:52:16;;;;;;;;;1.00;1.00;;;;;23.40;46.00;101805.75;2394550;28;45487;-81
2022/08/20 10:53:27;;;;;;;;;1.00;1.00;;;;;23.38;45.71;101808.53;2394743;28;45328;-81
2022/08/20 10:54:40;;;;;;;;;3.50;2.00;;;;;23.36;45.95;101799.72;2394111;28;46204;-81
2022/08/20 10:55:53;;;;;;;;;4.50;1.50;;;;;23.37;46.74;101798.78;2394778;28;45166;-81
2022/08/20 10:57:03;;;;;;;;;2.75;2.25;;;;;23.40;47.21;101812.94;2388704;28;46148;-81
2022/08/20 10:58:14;;;;;;;;;3.25;2.00;;;;;23.42;47.55;101806.50;2394753;28;45441;-81
2022/08/20 10:59:24;;;;;;;;;1.50;1.50;;;;;23.44;47.34;101806.38;2394319;28;46048;-82
2022/08/20 11:00:35;;;;;;;;;2.00;2.00;;;;;23.47;46.88;101800.78;2394163;28;44684;-82
2022/08/20 11:01:45;;;;;;;;;2.00;1.50;;;;;23.46;46.77;101802.63;2394421;28;46707;-82
2022/08/20 11:02:56;;;;;;;;;2.00;2.00;;;;;23.48;46.26;101797.16;2394710;28;45299;-82
2022/08/20 11:04:06;;;;;;;;;1.50;1.00;;;;;23.48;46.35;101802.53;2393600;28;47167;-82
2022/08/20 11:05:16;;;;;;;;;1.25;1.00;;;;;23.49;46.19;101801.56;2393788;28;44807;-82
2022/08/20 11:06:27;;;;;;;;;4.75;1.50;;;;;23.50;46.73;101800.63;2383902;28;46239;-82
2022/08/20 11:07:41;;;;;;;;;2.25;1.00;;;;;23.52;46.80;101804.03;2387062;28;44776;-82
2022/08/20 11:08:51;;;;;;;;;4.25;2.75;;;;;23.54;46.52;101799.41;2391702;28;45411;-83
2022/08/20 11:10:03;;;;;;;;;3.50;1.75;;;;;23.57;46.87;101801.88;2385322;28;45223;-83
2022/08/20 11:11:13;;;;;;;;;6.00;3.00;;;;;23.60;46.37;101807.03;2385039;28;45428;-82
2022/08/20 11:12:24;;;;;;;;;2.00;1.00;;;;;23.60;46.49;101800.81;2385216;28;45488;-82
2022/08/20 11:13:34;;;;;;;;;3.00;1.75;;;;;23.60;46.02;101807.03;2385068;28;45541;-82
2022/08/20 11:14:46;;;;;;;;;2.25;2.00;;;;;23.64;46.00;101807.66;2385037;28;45332;-82
2022/08/20 11:15:56;;;;;;;;;3.50;2.25;;;;;23.65;46.13;101803.16;2394507;28;46596;-82
2022/08/20 11:17:07;;;;;;;;;1.50;1.50;;;;;23.69;46.35;101799.28;2393993;28;45355;-82
2022/08/20 11:18:17;;;;;;;;;5.00;2.00;;;;;23.70;46.05;101807.22;2385143;28;46426;-82
2022/08/20 11:19:28;;;;;;;;;1.00;1.00;;;;;23.71;45.99;101803.56;2385148;28;45228;-82
2022/08/20 11:20:38;;;;;;;;;2.25;1.75;;;;;23.76;46.50;101803.22;2384629;28;46282;-82
2022/08/20 11:21:49;;;;;;;;;2.50;1.25;;;;;23.78;46.50;101803.13;2385740;28;45218;-82
2022/08/20 11:22:59;;;;;;;;;3.00;1.50;;;;;23.80;46.67;101806.56;2390891;28;45279;-82
2022/08/20 11:24:10;;;;;;;;;4.25;1.75;;;;;23.81;45.73;101801.06;2385231;28;45217;-82
2022/08/20 11:25:20;;;;;;;;;3.75;2.75;;;;;23.84;46.58;101802.66;2390667;28;47571;-82
2022/08/20 11:26:30;;;;;;;;;2.00;2.00;;;;;23.85;46.26;101808.91;2392184;28;45160;-83
2022/08/20 11:27:45;;;;;;;;;2.50;2.00;;;;;23.84;45.98;101802.66;2390353;28;46449;-83
2022/08/20 11:28:55;;;;;;;;;4.00;2.25;;;;;23.86;46.64;101800.72;2394478;28;45440;-83
2022/08/20 11:30:09;;;;;;;;;0.00;0.00;;;;;23.86;46.37;101795.34;2394384;28;45378;-83
2022/08/20 11:31:19;;;;;;;;;4.00;2.00;;;;;23.88;46.67;101796.09;2394347;28;45256;-83
2022/08/20 11:32:29;;;;;;;;;5.00;3.25;;;;;23.90;46.71;101798.69;2394256;28;45266;-83
2022/08/20 11:33:40;;;;;;;;;5.00;2.75;;;;;23.88;44.95;101797.94;2394421;28;44542;-83
2022/08/20 11:34:50;;;;;;;;;2.25;2.25;;;;;23.86;45.61;101794.50;2393795;28;45477;-83
2022/08/20 11:36:01;;;;;;;;;3.75;2.00;;;;;23.86;45.46;101802.53;2383381;28;45256;-80
2022/08/20 11:37:14;;;;;;;;;3.75;3.75;;;;;23.83;45.42;101801.81;2375213;28;47284;-82
2022/08/20 11:38:24;;;;;;;;;2.75;2.50;;;;;23.86;45.55;101800.72;2383897;28;44768;-83
2022/08/20 11:39:35;;;;;;;;;5.00;3.00;;;;;23.86;45.58;101800.72;2390439;28;45456;-83
2022/08/20 11:40:46;;;;;;;;;2.00;2.00;;;;;23.87;45.53;101798.91;2390265;28;45269;-83
2022/08/20 11:41:56;;;;;;;;;6.00;3.50;;;;;23.88;45.06;101808.69;2388444;28;46441;-83
2022/08/20 11:43:07;;;;;;;;;3.75;2.00;;;;;23.86;44.65;101798.03;2392044;28;45483;-83
2022/08/20 11:44:17;;;;;;;;;2.00;2.00;;;;;23.83;44.98;101793.75;2387498;28;45566;-83
2022/08/20 11:45:27;;;;;;;;;3.75;2.00;;;;;23.83;44.70;101798.25;2388604;28;46019;-83
2022/08/20 11:46:38;;;;;;;;;3.00;1.50;;;;;23.82;45.00;101789.38;2383879;28;45917;-83
2022/08/20 11:47:48;;;;;;;;;2.75;2.75;;;;;23.83;45.20;101799.13;2386427;28;45247;-83
2022/08/20 11:48:59;;;;;;;;;1.75;1.00;;;;;23.83;44.99;101796.44;2393391;28;46210;-83
2022/08/20 11:50:15;;;;;;;;;2.25;1.00;;;;;23.83;44.68;101791.06;2387674;28;45509;-83
2022/08/20 11:51:25;;;;;;;;;3.25;1.00;;;;;23.87;45.42;101796.22;2388628;28;45482;-82
2022/08/20 11:52:36;;;;;;;;;2.00;2.00;;;;;23.89;45.64;101794.28;2390911;28;45440;-82
2022/08/20 11:53:46;;;;;;;;;4.50;2.00;;;;;23.90;44.80;101793.31;2392807;28;45381;-83
2022/08/20 11:54:57;;;;;;;;;5.00;2.75;;;;;23.93;45.45;101795.75;2380454;28;45530;-82
2022/08/20 11:56:15;;;;;;;;;3.00;3.00;;;;;23.91;44.20;101793.19;2385735;28;45523;-83
2022/08/20 11:57:29;;;;;;;;;2.75;1.75;;;;;23.93;45.06;101793.06;2389543;28;45395;-83
2022/08/20 11:58:39;;;;;;;;;4.00;2.00;;;;;23.95;44.77;101796.53;2390412;28;46360;-83
2022/08/20 11:59:52;;;;;;;;;6.00;2.25;;;;;23.98;45.42;101785.53;2392377;28;45670;-83
2022/08/20 12:01:02;;;;;;;;;4.00;4.00;;;;;24.00;45.41;101786.28;2393569;28;45376;-83
2022/08/20 12:02:13;;;;;;;;;3.50;2.25;;;;;24.03;45.39;101783.38;2387847;28;46076;-83
2022/08/20 12:03:23;;;;;;;;;4.00;2.00;;;;;24.07;45.63;101788.50;2388950;28;46386;-84
2022/08/20 12:04:33;;;;;;;;;2.00;2.00;;;;;24.09;45.40;101782.06;2386847;28;44783;-83
2022/08/20 12:05:45;;;;;;;;;2.75;2.75;;;;;24.10;45.62;101783.75;2384316;28;45325;-83
2022/08/20 12:06:55;;;;;;;;;3.00;3.00;;;;;24.12;45.56;101784.53;2390555;28;44872;-83
2022/08/20 12:08:07;;;;;;;;;2.75;2.50;;;;;24.15;44.57;101789.63;2389981;28;45624;-82
2022/08/20 12:09:17;;;;;;;;;2.50;2.50;;;;;24.14;45.08;101777.22;2393459;28;45498;-82
2022/08/20 12:10:28;;;;;;;;;3.00;3.00;;;;;24.14;43.79;101779.91;2392593;28;46278;-83
2022/08/20 12:11:39;;;;;;;;;2.00;1.75;;;;;24.13;44.44;101775.47;2390167;28;46721;-82
2022/08/20 12:12:49;;;;;;;;;3.50;3.50;;;;;24.14;44.10;101787.09;2392941;28;45982;-83
2022/08/20 12:13:59;;;;;;;;;5.75;3.00;;;;;24.14;44.09;101776.34;2388060;28;45274;-82
2022/08/20 12:15:10;;;;;;;;;5.25;3.00;;;;;24.16;43.90;101779.75;2392942;28;46279;-83
2022/08/20 12:16:20;;;;;;;;;3.00;3.00;;;;;24.16;43.93;101772.56;2382787;28;46252;-83
2022/08/20 12:17:32;;;;;;;;;2.50;2.00;;;;;24.18;44.65;101767.06;2383693;28;46165;-83
2022/08/20 12:18:42;;;;;;;;;7.25;2.25;;;;;24.20;43.99;101775.03;2392653;28;45155;-83
2022/08/20 12:19:55;;;;;;;;;3.50;3.50;;;;;24.19;43.25;101767.94;2390720;28;45546;-83
2022/08/20 12:21:05;;;;;;;;;3.00;3.00;;;;;24.19;43.34;101768.78;2392109;28;45495;-83
2022/08/20 12:22:15;;;;;;;;;1.50;1.50;;;;;24.20;43.22;101762.44;2390593;28;46517;-83
2022/08/20 12:23:26;;;;;;;;;5.00;3.00;;;;;24.20;43.74;101759.75;2392360;28;44668;-83
2022/08/20 12:24:37;;;;;;;;;2.50;2.00;;;;;24.23;43.56;101764.91;2388931;28;47867;-84
2022/08/20 12:25:48;;;;;;;;;4.00;3.75;;;;;24.25;43.98;101762.97;2390473;28;45692;-82
2022/08/20 12:27:26;;;;;;;;;4.50;2.75;;;;;24.30;44.06;101772.53;2392718;28;45365;-81
2022/08/20 12:28:37;;;;;;;;;4.00;3.00;;;;;24.30;44.48;101761.78;2389677;28;46856;-81
2022/08/20 12:29:51;;;;;;;;;3.00;3.00;;;;;24.32;45.00;101762.53;2392061;28;46524;-82
2022/08/20 12:31:02;;;;;;;;;4.00;3.00;;;;;24.36;44.36;101775.63;2389338;28;45231;-81
2022/08/20 12:32:13;;;;;;;;;5.00;3.00;;;;;24.36;44.71;101762.19;2392789;28;45617;-82
2022/08/20 12:33:24;;;;;;;;;4.00;4.00;;;;;24.38;44.08;101770.09;2391053;28;45222;-81
2022/08/20 12:34:37;;;;;;;;;4.00;4.00;;;;;24.38;44.20;101770.09;2391970;28;45516;-81
2022/08/20 12:35:47;;;;;;;;;4.00;3.00;;;;;24.37;43.14;101766.56;2391288;28;45208;-82
2022/08/20 12:37:04;;;;;;;;;2.25;2.25;;;;;24.38;44.38;101762.06;2392155;28;45855;-81
2022/08/20 12:38:14;;;;;;;;;2.75;2.00;;;;;24.40;43.67;101770.84;2392774;28;44691;-81
2022/08/20 12:39:24;;;;;;;;;4.00;3.00;;;;;24.42;43.83;101773.44;2388637;28;45279;-81
2022/08/20 12:40:35;;;;;;;;;4.00;3.25;;;;;24.44;43.97;101769.66;2389891;28;45195;-81
2022/08/20 12:41:45;;;;;;;;;3.00;2.00;;;;;24.47;44.14;101772.09;2386775;28;46344;-84
2022/08/20 12:42:55;;;;;;;;;4.50;4.25;;;;;24.48;43.84;101767.56;2393751;28;45143;-81
2022/08/20 12:44:08;;;;;;;;;6.00;2.75;;;;;24.49;43.61;101767.47;2388761;28;45309;-81
2022/08/20 12:45:18;;;;;;;;;3.25;3.00;;;;;24.50;43.77;101766.47;2391276;28;45614;-81
2022/08/20 12:46:28;;;;;;;;;4.00;3.00;;;;;24.52;43.99;101760.16;2392326;28;45469;-81
2022/08/20 12:47:41;;;;;;;;;5.75;3.50;;;;;24.54;44.02;101768.94;2387024;28;45290;-81
2022/08/20 12:48:52;;;;;;;;;4.50;3.25;;;;;24.55;44.34;101762.56;2387471;28;48169;-81
2022/08/20 12:50:06;;;;;;;;;2.50;1.50;;;;;24.57;43.44;101763.34;2387011;28;44637;-81
2022/08/20 12:51:17;;;;;;;;;2.00;2.00;;;;;24.59;44.29;101773.00;2391511;28;45805;-81
2022/08/20 12:52:29;;;;;;;;;4.00;3.25;;;;;24.60;43.79;101771.16;2393560;28;44744;-81
2022/08/20 12:53:39;;;;;;;;;2.75;2.75;;;;;24.58;44.17;101759.66;2391876;28;45783;-81
2022/08/20 12:54:50;;;;;;;;;7.00;3.25;;;;;24.58;44.35;101760.53;2393562;28;45232;-82
2022/08/20 12:56:03;;;;;;;;;5.00;5.00;;;;;24.59;43.80;101758.69;2392214;28;46059;-82
2022/08/20 12:57:27;;;;;;;;;3.00;3.00;;;;;24.63;44.12;101764.69;2392155;28;45500;-81
2022/08/20 12:58:37;;;;;;;;;3.00;3.00;;;;;24.61;44.49;101749.53;2386098;28;45516;-81
2022/08/20 12:59:48;;;;;;;;;4.00;3.50;;;;;24.63;43.78;101748.56;2390246;28;45715;-82
2022/08/20 13:00:58;;;;;;;;;5.00;3.00;;;;;24.65;43.82;101757.34;2393365;28;45352;-82
2022/08/20 13:02:08;;;;;;;;;6.00;5.00;;;;;24.66;44.45;101751.00;2386643;28;45735;-82
2022/08/20 13:03:19;;;;;;;;;6.00;3.25;;;;;24.65;44.65;101746.59;2387180;28;45271;-81
2022/08/20 13:04:30;;;;;;;;;6.50;5.25;;;;;24.64;44.40;101745.75;2381627;28;45227;-81
2022/08/20 13:05:40;;;;;;;;;4.50;4.50;;;;;24.65;43.78;101752.84;2384708;28;46204;-81
2022/08/20 13:06:51;;;;;;;;;4.50;3.50;;;;;24.64;43.50;101751.13;2389356;28;45180;-81
2022/08/20 13:08:06;;;;;;;;;6.00;5.00;;;;;24.67;43.86;101747.38;2388681;28;45340;-81
2022/08/20 13:09:17;;;;;;;;;3.00;3.00;;;;;24.67;44.41;101745.50;2386563;28;44720;-81
2022/08/20 13:10:32;;;;;;;;;3.75;3.75;;;;;24.68;43.73;101743.69;2385829;28;45532;-82